createdAt,value
2022-09-07T00:00:53.729Z,19.34
2022-09-07T00:03:21.973Z,19.25
2022-09-07T00:05:51.552Z,19.12
2022-09-07T00:08:21.961Z,19.09
2022-09-07T00:11:12.314Z,19.04
2022-09-07T00:13:41.241Z,19.05
2022-09-07T00:16:13.026Z,19.04
2022-09-07T00:18:45.575Z,18.93
2022-09-07T00:21:16.263Z,18.75
2022-09-07T00:23:44.829Z,18.60
2022-09-07T00:26:15.008Z,18.60
2022-09-07T00:28:43.975Z,18.52
2022-09-07T00:31:19.908Z,18.45
2022-09-07T00:33:49.196Z,18.47
2022-09-07T00:36:18.438Z,18.47
2022-09-07T00:38:46.564Z,18.23
2022-09-07T00:41:15.401Z,18.22
2022-09-07T00:43:46.651Z,18.16
2022-09-07T00:46:21.486Z,18.14
2022-09-07T00:49:11.153Z,18.11
2022-09-07T00:51:43.343Z,18.09
2022-09-07T00:54:17.269Z,18.08
2022-09-07T00:56:48.994Z,18.07
2022-09-07T00:59:20.248Z,18.21
2022-09-07T01:01:48.306Z,18.27
2022-09-07T01:04:16.413Z,18.23
2022-09-07T01:06:44.395Z,18.25
2022-09-07T01:09:16.945Z,18.28
2022-09-07T01:11:50.790Z,18.32
2022-09-07T01:14:22.889Z,18.36
2022-09-07T01:17:13.692Z,18.35
2022-09-07T01:20:03.793Z,18.37
2022-09-07T01:23:08.265Z,18.39
2022-09-07T01:25:53.137Z,18.39
2022-09-07T01:28:27.335Z,18.39
2022-09-07T01:31:19.998Z,18.29
2022-09-07T01:33:54.067Z,18.29
2022-09-07T01:36:55.900Z,18.29
2022-09-07T01:39:39.014Z,18.23
2022-09-07T01:42:15.590Z,18.16
2022-09-07T01:44:55.055Z,18.24
2022-09-07T01:47:30.209Z,18.19
2022-09-07T01:50:08.435Z,18.14
2022-09-07T01:52:47.390Z,18.11
2022-09-07T01:55:21.768Z,18.07
2022-09-07T01:58:02.113Z,17.98
2022-09-07T02:00:31.228Z,18.04
2022-09-07T02:03:13.092Z,18.01
2022-09-07T02:05:51.008Z,17.99
2022-09-07T02:08:24.266Z,17.95
2022-09-07T02:11:02.313Z,17.85
2022-09-07T02:13:45.671Z,17.87
2022-09-07T02:16:44.668Z,17.84
2022-09-07T02:19:16.991Z,17.75
2022-09-07T02:21:52.124Z,17.73
2022-09-07T02:24:31.259Z,17.62
2022-09-07T02:27:00.024Z,17.49
2022-09-07T02:29:30.855Z,17.55
2022-09-07T02:31:59.041Z,17.52
2022-09-07T02:34:27.643Z,17.47
2022-09-07T02:36:59.939Z,17.52
2022-09-07T02:39:27.752Z,17.49
2022-09-07T02:41:55.813Z,17.59
2022-09-07T02:44:32.503Z,17.53
2022-09-07T02:47:48.635Z,17.53
2022-09-07T02:51:02.252Z,17.59
2022-09-07T02:53:44.458Z,17.59
2022-09-07T02:56:34.632Z,17.60
2022-09-07T02:59:23.732Z,17.58
2022-09-07T03:01:54.358Z,17.54
2022-09-07T03:04:47.613Z,17.50
2022-09-07T03:07:17.088Z,17.50
2022-09-07T03:09:50.289Z,17.49
2022-09-07T03:12:18.015Z,17.42
2022-09-07T03:14:46.132Z,17.39
2022-09-07T03:17:14.166Z,17.37
2022-09-07T03:19:41.763Z,17.43
2022-09-07T03:22:09.647Z,17.41
2022-09-07T03:24:37.114Z,17.40
2022-09-07T03:27:04.979Z,17.32
2022-09-07T03:29:32.782Z,17.37
2022-09-07T03:32:00.334Z,17.28
2022-09-07T03:34:27.804Z,17.28
2022-09-07T03:36:55.629Z,17.29
2022-09-07T03:39:24.147Z,17.24
2022-09-07T03:41:51.639Z,17.30
2022-09-07T03:44:20.602Z,17.31
2022-09-07T03:46:48.169Z,17.28
2022-09-07T03:49:16.085Z,17.26
2022-09-07T03:51:43.919Z,17.17
2022-09-07T03:54:11.467Z,17.20
2022-09-07T03:56:39.128Z,17.20
2022-09-07T03:59:07.030Z,17.14
2022-09-07T04:01:34.841Z,16.90
2022-09-07T04:04:02.931Z,17.07
2022-09-07T04:06:31.440Z,17.07
2022-09-07T04:09:07.071Z,17.04
2022-09-07T04:11:35.939Z,17.11
2022-09-07T04:14:03.791Z,17.09
2022-09-07T04:16:31.440Z,17.07
2022-09-07T04:18:59.513Z,17.05
2022-09-07T04:21:29.271Z,17.05
2022-09-07T04:23:57.218Z,17.04
2022-09-07T04:26:27.575Z,17.02
2022-09-07T04:28:55.883Z,17.02
2022-09-07T04:31:24.095Z,17.00
2022-09-07T04:33:52.864Z,17.04
2022-09-07T04:36:20.866Z,17.01
2022-09-07T04:39:01.416Z,17.05
2022-09-07T04:41:31.028Z,17.07
2022-09-07T04:44:01.244Z,17.07
2022-09-07T04:46:35.163Z,17.04
2022-09-07T04:49:07.157Z,17.00
2022-09-07T04:51:36.097Z,17.12
2022-09-07T04:54:04.235Z,17.06
2022-09-07T04:56:32.800Z,17.11
2022-09-07T04:59:04.620Z,17.09
2022-09-07T05:01:32.211Z,17.17
2022-09-07T05:04:01.271Z,17.24
2022-09-07T05:06:29.239Z,17.20
2022-09-07T05:08:59.246Z,17.37
2022-09-07T05:11:29.514Z,17.37
2022-09-07T05:14:02.115Z,17.51
2022-09-07T05:16:31.009Z,17.55
2022-09-07T05:19:01.471Z,17.58
2022-09-07T05:21:32.724Z,17.63
2022-09-07T05:24:01.496Z,17.54
2022-09-07T05:26:33.328Z,17.74
2022-09-07T05:31:52.204Z,17.95
2022-09-07T05:34:35.489Z,18.13
2022-09-07T05:37:03.260Z,18.23
2022-09-07T05:39:31.296Z,18.34
2022-09-07T05:41:58.938Z,18.36
2022-09-07T05:47:16.669Z,18.82
2022-09-07T05:49:44.772Z,19.12
2022-09-07T05:52:46.078Z,19.40
2022-09-07T05:55:29.327Z,19.64
2022-09-07T05:57:58.573Z,19.70
2022-09-07T06:00:26.054Z,19.86
2022-09-07T06:02:53.953Z,20.04
2022-09-07T06:05:21.505Z,20.16
2022-09-07T06:07:49.104Z,20.34
2022-09-07T06:13:05.616Z,20.51
2022-09-07T06:15:34.615Z,20.57
2022-09-07T06:18:02.366Z,20.70
2022-09-07T06:20:29.887Z,20.75
2022-09-07T06:22:59.463Z,20.79
2022-09-07T06:25:26.988Z,20.81
2022-09-07T06:27:54.519Z,20.93
2022-09-07T06:30:22.575Z,20.96
2022-09-07T06:32:50.037Z,21.08
2022-09-07T06:35:17.835Z,21.20
2022-09-07T06:37:46.124Z,21.28
2022-09-07T06:40:13.754Z,21.38
2022-09-07T06:42:41.403Z,21.45
2022-09-07T06:45:11.233Z,21.46
2022-09-07T06:47:41.752Z,21.55
2022-09-07T06:50:10.124Z,21.58
2022-09-07T06:55:27.888Z,21.75
2022-09-07T06:57:55.539Z,21.86
2022-09-07T07:00:23.136Z,21.89
2022-09-07T07:02:53.323Z,22.11
2022-09-07T07:05:21.597Z,22.15
2022-09-07T07:07:49.202Z,22.26
2022-09-07T07:10:19.770Z,22.37
2022-09-07T07:12:49.797Z,22.46
2022-09-07T07:15:17.636Z,22.59
2022-09-07T07:17:48.010Z,22.65
2022-09-07T07:20:21.202Z,22.84
2022-09-07T07:22:52.258Z,22.87
2022-09-07T07:25:21.373Z,22.97
2022-09-07T07:27:49.177Z,23.07
2022-09-07T07:30:18.663Z,23.26
2022-09-07T07:32:47.793Z,23.33
2022-09-07T07:35:15.541Z,23.33
2022-09-07T07:37:43.250Z,23.42
2022-09-07T07:42:42.868Z,23.62
2022-09-07T07:47:59.851Z,23.80
2022-09-07T07:50:31.778Z,23.96
2022-09-07T07:55:48.151Z,24.12
2022-09-07T07:58:16.386Z,24.23
2022-09-07T08:00:54.331Z,24.26
2022-09-07T08:03:23.309Z,24.29
2022-09-07T08:05:50.980Z,24.43
2022-09-07T08:08:19.407Z,24.47
2022-09-07T08:10:47.945Z,24.50
2022-09-07T08:13:19.261Z,24.59
2022-09-07T08:15:47.379Z,24.58
2022-09-07T08:18:16.890Z,24.78
2022-09-07T08:20:44.612Z,24.73
2022-09-07T08:23:12.387Z,24.91
2022-09-07T08:25:49.599Z,25.05
2022-09-07T08:28:17.576Z,25.12
2022-09-07T08:30:45.060Z,25.11
2022-09-07T08:33:12.501Z,25.27
2022-09-07T08:35:41.349Z,25.41
2022-09-07T08:38:08.840Z,25.47
2022-09-07T08:40:38.064Z,25.50
2022-09-07T08:43:33.678Z,25.74
2022-09-07T08:46:37.406Z,25.85
2022-09-07T08:49:13.633Z,25.89
2022-09-07T08:51:58.985Z,26.08
2022-09-07T08:54:27.544Z,26.19
2022-09-07T09:00:07.912Z,26.22
2022-09-07T09:02:42.463Z,26.37
2022-09-07T09:05:24.587Z,26.40
2022-09-07T09:08:13.036Z,26.56
2022-09-07T09:11:02.013Z,26.70
2022-09-07T09:13:46.869Z,26.79
2022-09-07T09:16:28.989Z,26.90
2022-09-07T09:19:08.624Z,27.00
2022-09-07T09:21:36.849Z,27.06
2022-09-07T09:24:16.660Z,26.92
2022-09-07T09:29:23.448Z,27.24
2022-09-07T09:31:51.223Z,27.32
2022-09-07T09:34:23.880Z,27.34
2022-09-07T09:36:56.774Z,27.46
2022-09-07T09:39:33.377Z,27.47
2022-09-07T09:42:10.130Z,27.44
2022-09-07T09:44:38.616Z,27.57
2022-09-07T09:49:56.376Z,27.73
2022-09-07T09:52:29.716Z,27.75
2022-09-07T09:55:17.304Z,27.79
2022-09-07T10:01:21.016Z,27.95
2022-09-07T10:06:19.969Z,27.91
2022-09-07T10:09:00.089Z,27.84
2022-09-07T10:14:43.891Z,28.11
2022-09-07T10:17:14.309Z,28.18
2022-09-07T10:19:43.168Z,28.21
2022-09-07T10:22:38.813Z,28.33
2022-09-07T10:25:28.338Z,28.59
2022-09-07T10:28:04.081Z,28.56
2022-09-07T10:30:56.451Z,28.72
2022-09-07T10:33:40.611Z,28.70
2022-09-07T10:36:34.984Z,28.83
2022-09-07T10:39:08.436Z,28.84
2022-09-07T10:42:13.723Z,28.79
2022-09-07T10:44:44.311Z,28.92
2022-09-07T10:47:25.161Z,28.85
2022-09-07T10:50:23.273Z,28.96
2022-09-07T10:52:54.029Z,29.02
2022-09-07T10:55:34.543Z,29.03
2022-09-07T11:01:28.585Z,29.09
2022-09-07T11:04:17.829Z,29.15
2022-09-07T11:06:50.381Z,29.08
2022-09-07T11:09:45.466Z,29.15
2022-09-07T11:12:24.854Z,29.16
2022-09-07T11:15:13.302Z,29.19
2022-09-07T11:17:49.375Z,29.09
2022-09-07T11:20:29.633Z,29.42
2022-09-07T11:23:32.133Z,29.44
2022-09-07T11:26:18.680Z,29.57
2022-09-07T11:29:29.304Z,29.57
2022-09-07T11:31:44.892Z,29.61
2022-09-07T11:34:24.126Z,29.48
2022-09-07T11:37:01.519Z,29.65
2022-09-07T11:39:40.964Z,29.49
2022-09-07T11:45:18.384Z,29.82
2022-09-07T11:48:07.742Z,29.82
2022-09-07T11:50:42.879Z,29.83
2022-09-07T11:53:36.496Z,30.05
2022-09-07T11:56:25.277Z,30.17
2022-09-07T11:59:36.669Z,30.02
2022-09-07T12:03:02.100Z,30.06
2022-09-07T12:05:48.888Z,30.13
2022-09-07T12:08:26.084Z,30.07
2022-09-07T12:10:53.789Z,30.34
2022-09-07T12:13:51.833Z,30.23
2022-09-07T12:16:33.445Z,30.22
2022-09-07T12:19:20.417Z,30.26
2022-09-07T12:21:56.195Z,30.29
2022-09-07T12:24:38.428Z,30.17
2022-09-07T12:27:12.149Z,30.39
2022-09-07T12:29:45.225Z,30.15
2022-09-07T12:35:26.770Z,30.56
2022-09-07T12:37:56.217Z,30.38
2022-09-07T12:40:36.083Z,30.36
2022-09-07T12:43:12.705Z,30.41
2022-09-07T12:45:51.355Z,30.51
2022-09-07T12:48:18.976Z,30.63
2022-09-07T12:54:34.376Z,29.71
2022-09-07T12:57:29.706Z,30.27
2022-09-07T13:00:19.086Z,30.19
2022-09-07T13:09:16.612Z,29.00
2022-09-07T13:11:45.669Z,29.59
2022-09-07T13:14:13.380Z,30.01
2022-09-07T13:19:46.262Z,30.25
2022-09-07T13:22:32.005Z,30.17
2022-09-07T13:25:02.056Z,30.16
2022-09-07T13:27:57.741Z,30.12
2022-09-07T13:30:47.980Z,30.03
2022-09-07T13:33:24.875Z,30.18
2022-09-07T13:35:55.386Z,30.18
2022-09-07T13:38:23.516Z,30.22
2022-09-07T13:40:52.702Z,30.14
2022-09-07T13:43:24.882Z,30.29
2022-09-07T13:45:55.457Z,29.98
2022-09-07T13:48:35.347Z,30.20
2022-09-07T13:51:13.270Z,30.15
2022-09-07T13:53:56.151Z,30.26
2022-09-07T13:56:26.868Z,30.16
2022-09-07T13:58:55.667Z,30.20
2022-09-07T14:01:26.446Z,30.11
2022-09-07T14:04:06.634Z,30.14
2022-09-07T14:06:36.284Z,30.14
2022-09-07T14:09:16.320Z,30.02
2022-09-07T14:11:43.664Z,29.79
2022-09-07T14:14:18.896Z,29.60
2022-09-07T14:17:00.763Z,29.53
2022-09-07T14:19:45.190Z,29.51
2022-09-07T14:22:16.099Z,29.53
2022-09-07T14:24:49.727Z,29.48
2022-09-07T14:27:34.999Z,29.18
2022-09-07T14:30:27.996Z,29.00
2022-09-07T14:33:02.536Z,28.97
2022-09-07T14:35:36.840Z,28.64
2022-09-07T14:38:15.537Z,28.44
2022-09-07T14:40:45.133Z,28.46
2022-09-07T14:43:37.253Z,28.39
2022-09-07T14:46:10.505Z,28.38
2022-09-07T14:48:39.873Z,28.35
2022-09-07T14:51:29.821Z,28.39
2022-09-07T14:53:58.325Z,28.45
2022-09-07T14:56:31.923Z,28.40
2022-09-07T14:58:59.295Z,28.48
2022-09-07T15:01:43.110Z,28.44
2022-09-07T15:04:19.220Z,28.41
2022-09-07T15:07:02.945Z,28.35
2022-09-07T15:09:38.035Z,28.28
2022-09-07T15:12:36.422Z,28.22
2022-09-07T15:15:41.365Z,28.20
2022-09-07T15:18:47.630Z,28.13
2022-09-07T15:21:16.360Z,28.07
2022-09-07T15:23:44.104Z,28.10
2022-09-07T15:27:02.046Z,28.11
2022-09-07T15:29:14.972Z,28.09
2022-09-07T15:31:47.367Z,28.03
2022-09-07T15:34:26.866Z,27.95
2022-09-07T15:36:57.171Z,27.88
2022-09-07T15:39:29.891Z,27.77
2022-09-07T15:41:59.029Z,27.68
2022-09-07T15:44:28.819Z,27.60
2022-09-07T15:49:50.083Z,27.52
2022-09-07T15:52:18.652Z,27.49
2022-09-07T15:54:46.693Z,27.45
2022-09-07T16:00:02.115Z,27.38
2022-09-07T16:05:31.013Z,27.29
2022-09-07T16:11:05.307Z,27.13
2022-09-07T16:13:33.752Z,27.06
2022-09-07T16:16:05.722Z,26.98
2022-09-07T16:18:34.359Z,26.86
2022-09-07T16:21:12.191Z,26.78
2022-09-07T16:23:42.928Z,26.69
2022-09-07T16:26:11.936Z,26.60
2022-09-07T16:28:41.592Z,26.51
2022-09-07T16:31:15.185Z,26.43
2022-09-07T16:33:42.998Z,26.33
2022-09-07T16:36:16.146Z,26.26
2022-09-07T16:38:48.210Z,26.14
2022-09-07T16:41:20.985Z,26.10
2022-09-07T16:43:49.451Z,26.02
2022-09-07T16:46:19.611Z,25.92
2022-09-07T16:48:48.318Z,25.80
2022-09-07T16:51:21.202Z,25.70
2022-09-07T16:53:51.272Z,25.57
2022-09-07T16:56:22.016Z,25.49
2022-09-07T16:58:51.898Z,25.38
2022-09-07T17:01:23.553Z,25.27
2022-09-07T17:03:52.012Z,25.15
2022-09-07T17:06:22.216Z,24.98
2022-09-07T17:08:49.731Z,24.97
2022-09-07T17:11:29.750Z,24.91
2022-09-07T17:13:58.884Z,24.81
2022-09-07T17:16:29.776Z,24.70
2022-09-07T17:21:47.012Z,24.53
2022-09-07T17:24:14.744Z,24.45
2022-09-07T17:26:42.588Z,24.42
2022-09-07T17:29:13.206Z,24.38
2022-09-07T17:34:30.209Z,24.29
2022-09-07T17:37:00.554Z,24.25
2022-09-07T17:39:28.960Z,24.19
2022-09-07T17:41:56.720Z,24.09
2022-09-07T17:44:24.469Z,24.08
2022-09-07T17:46:51.868Z,24.06
2022-09-07T17:49:19.446Z,24.01
2022-09-07T17:51:47.307Z,23.98
2022-09-07T17:54:17.359Z,23.95
2022-09-07T17:56:45.391Z,23.88
2022-09-07T18:02:01.284Z,23.81
2022-09-07T18:04:29.051Z,23.75
2022-09-07T18:06:56.683Z,23.72
2022-09-07T18:09:24.159Z,23.67
2022-09-07T18:11:51.808Z,23.63
2022-09-07T18:14:19.647Z,23.61
2022-09-07T18:16:49.832Z,23.55
2022-09-07T18:19:18.638Z,23.52
2022-09-07T18:21:47.988Z,23.47
2022-09-07T18:24:21.492Z,23.43
2022-09-07T18:26:52.050Z,23.39
2022-09-07T18:29:33.505Z,23.37
2022-09-07T18:32:08.054Z,23.32
2022-09-07T18:34:38.443Z,23.30
2022-09-07T18:37:06.790Z,23.31
2022-09-07T18:39:35.481Z,23.31
2022-09-07T18:42:03.567Z,23.34
2022-09-07T18:47:27.524Z,23.32
2022-09-07T18:49:56.856Z,23.28
2022-09-07T18:55:12.428Z,23.18
2022-09-07T18:57:39.938Z,23.16
2022-09-07T19:00:09.760Z,23.05
2022-09-07T19:02:37.633Z,23.06
2022-09-07T19:07:53.463Z,23.00
2022-09-07T19:10:20.875Z,22.94
2022-09-07T19:12:48.310Z,22.89
2022-09-07T19:15:16.050Z,22.84
2022-09-07T19:17:43.742Z,22.76
2022-09-07T19:20:11.388Z,22.73
2022-09-07T19:22:39.288Z,22.66
2022-09-07T19:25:06.939Z,22.64
2022-09-07T19:27:34.565Z,22.58
2022-09-07T19:30:02.366Z,22.54
2022-09-07T19:32:29.907Z,22.48
2022-09-07T19:34:57.456Z,22.42
2022-09-07T19:37:25.648Z,22.37
2022-09-07T19:39:56.697Z,22.34
2022-09-07T19:42:25.222Z,22.32
2022-09-07T19:44:54.062Z,22.31
2022-09-07T19:47:21.816Z,22.29
2022-09-07T19:49:49.378Z,22.29
2022-09-07T19:52:17.040Z,22.30
2022-09-07T19:54:44.443Z,22.08
2022-09-07T19:57:11.823Z,22.16
2022-09-07T19:59:39.572Z,22.11
2022-09-07T20:02:10.010Z,22.16
2022-09-07T20:04:37.884Z,22.08
2022-09-07T20:07:06.624Z,22.06
2022-09-07T20:09:34.124Z,22.09
2022-09-07T20:12:03.717Z,21.97
2022-09-07T20:14:31.109Z,21.98
2022-09-07T20:16:58.453Z,21.83
2022-09-07T20:19:26.128Z,21.92
2022-09-07T20:21:55.772Z,21.91
2022-09-07T20:24:23.480Z,21.89
2022-09-07T20:26:51.185Z,21.89
2022-09-07T20:29:34.067Z,21.89
2022-09-07T20:32:02.692Z,21.86
2022-09-07T20:34:30.089Z,21.85
2022-09-07T20:36:57.667Z,21.83
2022-09-07T20:39:25.588Z,21.81
2022-09-07T20:41:53.231Z,21.82
2022-09-07T20:44:20.777Z,21.77
2022-09-07T20:46:48.574Z,21.77
2022-09-07T20:49:16.082Z,21.77
2022-09-07T20:51:43.633Z,21.74
2022-09-07T20:54:11.765Z,21.72
2022-09-07T20:56:39.354Z,21.69
2022-09-07T20:59:06.879Z,21.68
2022-09-07T21:01:35.194Z,21.60
2022-09-07T21:04:03.137Z,21.60
2022-09-07T21:06:31.324Z,21.52
2022-09-07T21:08:59.860Z,21.60
2022-09-07T21:11:35.375Z,21.58
2022-09-07T21:14:06.237Z,21.59
2022-09-07T21:16:34.771Z,21.58
2022-09-07T21:19:03.995Z,21.58
2022-09-07T21:21:38.575Z,21.55
2022-09-07T21:24:14.122Z,21.53
2022-09-07T21:26:41.744Z,21.51
2022-09-07T21:29:16.712Z,21.53
2022-09-07T21:31:44.888Z,21.49
2022-09-07T21:34:12.985Z,21.47
2022-09-07T21:36:40.408Z,21.45
2022-09-07T21:39:11.429Z,21.42
2022-09-07T21:41:43.339Z,21.40
2022-09-07T21:44:13.452Z,21.39
2022-09-07T21:46:42.432Z,21.36
2022-09-07T21:49:10.040Z,21.34
2022-09-07T21:51:38.007Z,21.30
2022-09-07T21:54:05.424Z,21.28
2022-09-07T21:56:32.973Z,21.25
2022-09-07T21:59:02.003Z,21.21
2022-09-07T22:01:30.437Z,21.16
2022-09-07T22:04:00.817Z,21.13
2022-09-07T22:06:28.460Z,21.11
2022-09-07T22:08:56.418Z,21.08
2022-09-07T22:11:26.220Z,21.06
2022-09-07T22:13:59.289Z,21.06
2022-09-07T22:16:27.126Z,21.06
2022-09-07T22:18:55.818Z,21.04
2022-09-07T22:21:25.485Z,21.01
2022-09-07T22:23:57.146Z,20.97
2022-09-07T22:26:28.143Z,20.95
2022-09-07T22:28:56.475Z,20.82
2022-09-07T22:31:27.338Z,20.90
2022-09-07T22:33:56.736Z,20.88
2022-09-07T22:36:31.133Z,20.81
2022-09-07T22:39:01.211Z,20.82
2022-09-07T22:41:32.453Z,20.85
2022-09-07T22:44:00.033Z,20.81
2022-09-07T22:46:29.598Z,20.78
2022-09-07T22:48:58.555Z,20.80
2022-09-07T22:51:26.842Z,20.78
2022-09-07T22:53:54.846Z,20.75
2022-09-07T22:56:25.391Z,20.73
2022-09-07T22:58:55.945Z,20.72
2022-09-07T23:01:24.828Z,20.71
2022-09-07T23:03:53.388Z,20.69
2022-09-07T23:06:28.050Z,20.67
2022-09-07T23:08:57.910Z,20.62
2022-09-07T23:11:26.487Z,20.62
2022-09-07T23:13:59.375Z,20.60
2022-09-07T23:16:28.032Z,20.56
2022-09-07T23:18:57.799Z,20.54
2022-09-07T23:21:26.175Z,20.52
2022-09-07T23:23:56.800Z,20.52
2022-09-07T23:26:26.081Z,20.51
2022-09-07T23:28:58.736Z,20.46
2022-09-07T23:31:29.296Z,20.45
2022-09-07T23:33:57.644Z,20.41
2022-09-07T23:36:25.456Z,20.40
2022-09-07T23:38:57.047Z,20.37
2022-09-07T23:41:25.883Z,20.35
2022-09-07T23:43:54.028Z,20.29
2022-09-07T23:46:21.978Z,20.33
2022-09-07T23:48:50.491Z,20.30
2022-09-07T23:51:23.402Z,20.27
2022-09-07T23:53:52.865Z,20.28
2022-09-07T23:56:21.653Z,20.23
2022-09-07T23:58:49.191Z,20.14
